sensor_id;sensor_type;location;lat;lon;timestamp;pressure;altitude;pressure_sealevel;temperature;humidity
56420;BME280;42323;52.170;7.538;2022-08-21T00:01:35;101243.78;;;18.41;100.00
56420;BME280;42323;52.170;7.538;2022-08-21T00:04:06;101245.66;;;18.40;100.00
56420;BME280;42323;52.170;7.538;2022-08-21T00:06:34;101243.53;;;18.35;100.00
56420;BME280;42323;52.170;7.538;2022-08-21T00:09:02;101238.72;;;18.31;100.00
56420;BME280;42323;52.170;7.538;2022-08-21T00:11:33;101240.25;;;18.19;100.00
56420;BME280;42323;52.170;7.538;2022-08-21T00:14:02;101237.69;;;18.11;100.00
56420;BME280;42323;52.170;7.538;2022-08-21T00:16:30;101233.63;;;18.00;100.00
56420;BME280;42323;52.170;7.538;2022-08-21T00:18:57;101234.38;;;17.94;100.00
56420;BME280;42323;52.170;7.538;2022-08-21T00:21:23;101226.59;;;17.84;100.00
56420;BME280;42323;52.170;7.538;2022-08-21T00:23:52;101237.09;;;17.79;100.00
56420;BME280;42323;52.170;7.538;2022-08-21T00:26:18;101225.81;;;17.69;100.00
56420;BME280;42323;52.170;7.538;2022-08-21T00:28:45;101229.00;;;17.64;100.00
56420;BME280;42323;52.170;7.538;2022-08-21T00:31:13;101236.63;;;17.61;100.00
56420;BME280;42323;52.170;7.538;2022-08-21T00:33:40;101231.81;;;17.56;100.00
56420;BME280;42323;52.170;7.538;2022-08-21T00:36:08;101229.31;;;17.55;100.00
56420;BME280;42323;52.170;7.538;2022-08-21T00:38:34;101233.75;;;17.62;100.00
56420;BME280;42323;52.170;7.538;2022-08-21T00:41:04;101231.25;;;17.61;100.00
56420;BME280;42323;52.170;7.538;2022-08-21T00:43:52;101229.13;;;17.71;100.00
56420;BME280;42323;52.170;7.538;2022-08-21T00:46:19;101226.06;;;17.74;100.00
56420;BME280;42323;52.170;7.538;2022-08-21T00:48:50;101226.06;;;17.74;100.00
56420;BME280;42323;52.170;7.538;2022-08-21T00:51:25;101227.75;;;17.75;100.00
56420;BME280;42323;52.170;7.538;2022-08-21T00:53:57;101231.44;;;17.74;100.00
56420;BME280;42323;52.170;7.538;2022-08-21T00:56:27;101228.75;;;17.74;100.00
56420;BME280;42323;52.170;7.538;2022-08-21T00:58:56;101229.53;;;17.68;100.00
56420;BME280;42323;52.170;7.538;2022-08-21T01:01:24;101229.41;;;17.76;100.00
56420;BME280;42323;52.170;7.538;2022-08-21T01:03:51;101229.03;;;17.79;100.00
56420;BME280;42323;52.170;7.538;2022-08-21T01:06:19;101236.91;;;17.81;100.00
56420;BME280;42323;52.170;7.538;2022-08-21T01:08:47;101231.97;;;17.84;100.00
56420;BME280;42323;52.170;7.538;2022-08-21T01:11:15;101218.53;;;17.84;100.00
56420;BME280;42323;52.170;7.538;2022-08-21T01:13:43;101219.56;;;17.83;100.00
56420;BME280;42323;52.170;7.538;2022-08-21T01:16:16;101218.72;;;17.83;100.00
56420;BME280;42323;52.170;7.538;2022-08-21T01:18:45;101218.25;;;17.79;100.00
56420;BME280;42323;52.170;7.538;2022-08-21T01:21:15;101230.63;;;17.73;100.00
56420;BME280;42323;52.170;7.538;2022-08-21T01:23:47;101222.28;;;17.68;100.00
56420;BME280;42323;52.170;7.538;2022-08-21T01:26:16;101222.53;;;17.59;100.00
56420;BME280;42323;52.170;7.538;2022-08-21T01:29:00;101224.13;;;17.53;100.00
56420;BME280;42323;52.170;7.538;2022-08-21T01:31:29;101229.50;;;17.38;100.00
56420;BME280;42323;52.170;7.538;2022-08-21T01:33:59;101236.53;;;17.39;100.00
56420;BME280;42323;52.170;7.538;2022-08-21T01:36:27;101230.41;;;17.31;100.00
56420;BME280;42323;52.170;7.538;2022-08-21T01:38:54;101229.31;;;17.25;100.00
56420;BME280;42323;52.170;7.538;2022-08-21T01:41:21;101238.78;;;17.21;100.00
56420;BME280;42323;52.170;7.538;2022-08-21T01:43:48;101237.44;;;17.17;100.00
56420;BME280;42323;52.170;7.538;2022-08-21T01:46:15;101242.28;;;17.22;100.00
56420;BME280;42323;52.170;7.538;2022-08-21T01:48:42;101236.72;;;17.08;100.00
56420;BME280;42323;52.170;7.538;2022-08-21T01:51:11;101234.84;;;17.09;100.00
56420;BME280;42323;52.170;7.538;2022-08-21T01:53:38;101241.91;;;17.10;100.00
56420;BME280;42323;52.170;7.538;2022-08-21T01:56:08;101224.84;;;17.03;100.00
56420;BME280;42323;52.170;7.538;2022-08-21T01:58:39;101235.97;;;17.00;100.00
56420;BME280;42323;52.170;7.538;2022-08-21T02:01:07;101241.03;;;16.95;100.00
56420;BME280;42323;52.170;7.538;2022-08-21T02:03:35;101230.19;;;16.88;100.00
56420;BME280;42323;52.170;7.538;2022-08-21T02:06:04;101232.41;;;16.84;100.00
56420;BME280;42323;52.170;7.538;2022-08-21T02:08:32;101237.31;;;16.81;100.00
56420;BME280;42323;52.170;7.538;2022-08-21T02:10:59;101229.13;;;16.74;100.00
56420;BME280;42323;52.170;7.538;2022-08-21T02:13:26;101240.22;;;16.71;100.00
56420;BME280;42323;52.170;7.538;2022-08-21T02:15:54;101229.84;;;16.68;100.00
56420;BME280;42323;52.170;7.538;2022-08-21T02:18:21;101235.88;;;16.70;100.00
56420;BME280;42323;52.170;7.538;2022-08-21T02:20:49;101231.88;;;16.66;100.00
56420;BME280;42323;52.170;7.538;2022-08-21T02:23:22;101221.16;;;16.66;100.00
56420;BME280;42323;52.170;7.538;2022-08-21T02:25:57;101223.97;;;16.65;100.00
56420;BME280;42323;52.170;7.538;2022-08-21T02:28:26;101225.56;;;16.59;100.00
56420;BME280;42323;52.170;7.538;2022-08-21T02:30:55;101228.41;;;16.58;100.00
56420;BME280;42323;52.170;7.538;2022-08-21T02:33:23;101229.63;;;16.55;100.00
56420;BME280;42323;52.170;7.538;2022-08-21T02:35:50;101231.66;;;16.53;100.00
56420;BME280;42323;52.170;7.538;2022-08-21T02:38:21;101234.34;;;16.53;100.00
56420;BME280;42323;52.170;7.538;2022-08-21T02:40:51;101230.66;;;16.46;100.00
56420;BME280;42323;52.170;7.538;2022-08-21T02:43:20;101229.72;;;16.39;100.00
56420;BME280;42323;52.170;7.538;2022-08-21T02:45:48;101222.03;;;16.36;100.00
56420;BME280;42323;52.170;7.538;2022-08-21T02:48:20;101225.75;;;16.35;100.00
56420;BME280;42323;52.170;7.538;2022-08-21T02:50:52;101220.66;;;16.40;100.00
56420;BME280;42323;52.170;7.538;2022-08-21T02:53:19;101225.75;;;16.35;100.00
56420;BME280;42323;52.170;7.538;2022-08-21T02:55:48;101224.72;;;16.36;100.00
56420;BME280;42323;52.170;7.538;2022-08-21T02:58:17;101227.44;;;16.28;100.00
56420;BME280;42323;52.170;7.538;2022-08-21T03:00:45;101219.28;;;16.21;100.00
56420;BME280;42323;52.170;7.538;2022-08-21T03:03:12;101219.28;;;16.21;100.00
56420;BME280;42323;52.170;7.538;2022-08-21T03:05:41;101211.47;;;16.11;100.00
56420;BME280;42323;52.170;7.538;2022-08-21T03:08:09;101216.84;;;16.11;100.00
56420;BME280;42323;52.170;7.538;2022-08-21T03:10:39;101222.22;;;16.11;100.00
56420;BME280;42323;52.170;7.538;2022-08-21T03:13:09;101217.19;;;16.08;100.00
56420;BME280;42323;52.170;7.538;2022-08-21T03:15:37;101206.97;;;16.04;100.00
56420;BME280;42323;52.170;7.538;2022-08-21T03:18:04;101211.34;;;16.05;100.00
56420;BME280;42323;52.170;7.538;2022-08-21T03:20:32;101206.81;;;16.05;100.00
56420;BME280;42323;52.170;7.538;2022-08-21T03:23:00;101217.88;;;16.02;100.00
56420;BME280;42323;52.170;7.538;2022-08-21T03:25:28;101202.97;;;16.00;100.00
56420;BME280;42323;52.170;7.538;2022-08-21T03:28:12;101208.59;;;15.90;100.00
56420;BME280;42323;52.170;7.538;2022-08-21T03:30:41;101213.78;;;15.91;100.00
56420;BME280;42323;52.170;7.538;2022-08-21T03:33:09;101204.91;;;15.91;100.00
56420;BME280;42323;52.170;7.538;2022-08-21T03:35:42;101214.63;;;15.84;100.00
56420;BME280;42323;52.170;7.538;2022-08-21T03:38:10;101207.13;;;15.79;100.00
56420;BME280;42323;52.170;7.538;2022-08-21T03:40:39;101214.03;;;15.74;100.00
56420;BME280;42323;52.170;7.538;2022-08-21T03:43:06;101210.22;;;15.68;100.00
56420;BME280;42323;52.170;7.538;2022-08-21T03:45:35;101220.94;;;15.68;100.00
56420;BME280;42323;52.170;7.538;2022-08-21T03:48:04;101216.41;;;15.69;100.00
56420;BME280;42323;52.170;7.538;2022-08-21T03:50:35;101213.59;;;15.62;100.00
56420;BME280;42323;52.170;7.538;2022-08-21T03:53:08;101214.59;;;15.53;100.00
56420;BME280;42323;52.170;7.538;2022-08-21T03:55:49;101222.81;;;15.51;100.00
56420;BME280;42323;52.170;7.538;2022-08-21T03:58:20;101219.63;;;15.48;100.00
56420;BME280;42323;52.170;7.538;2022-08-21T04:00:50;101225.34;;;15.45;100.00
56420;BME280;42323;52.170;7.538;2022-08-21T04:03:18;101228.03;;;15.45;100.00
56420;BME280;42323;52.170;7.538;2022-08-21T04:05:45;101227.84;;;15.46;100.00
56420;BME280;42323;52.170;7.538;2022-08-21T04:08:13;101234.88;;;15.47;100.00
56420;BME280;42323;52.170;7.538;2022-08-21T04:10:43;101238.41;;;15.48;100.00
56420;BME280;42323;52.170;7.538;2022-08-21T04:13:10;101236.91;;;15.45;100.00
56420;BME280;42323;52.170;7.538;2022-08-21T04:15:37;101235.22;;;15.44;100.00
56420;BME280;42323;52.170;7.538;2022-08-21T04:18:04;101241.44;;;15.45;100.00
56420;BME280;42323;52.170;7.538;2022-08-21T04:20:33;101232.72;;;15.43;100.00
56420;BME280;42323;52.170;7.538;2022-08-21T04:23:01;101236.59;;;15.40;100.00
56420;BME280;42323;52.170;7.538;2022-08-21T04:25:29;101241.25;;;15.38;100.00
56420;BME280;42323;52.170;7.538;2022-08-21T04:27:56;101242.09;;;15.39;100.00
56420;BME280;42323;52.170;7.538;2022-08-21T04:30:25;101248.31;;;15.39;100.00
56420;BME280;42323;52.170;7.538;2022-08-21T04:32:55;101246.63;;;15.38;100.00
56420;BME280;42323;52.170;7.538;2022-08-21T04:35:25;101255.50;;;15.39;100.00
56420;BME280;42323;52.170;7.538;2022-08-21T04:37:53;101248.31;;;15.39;100.00
56420;BME280;42323;52.170;7.538;2022-08-21T04:40:21;101250.66;;;15.34;100.00
56420;BME280;42323;52.170;7.538;2022-08-21T04:42:51;101248.81;;;15.35;100.00
56420;BME280;42323;52.170;7.538;2022-08-21T04:45:32;101250.34;;;15.29;100.00
56420;BME280;42323;52.170;7.538;2022-08-21T04:48:01;101249.34;;;15.30;100.00
56420;BME280;42323;52.170;7.538;2022-08-21T04:50:38;101256.34;;;15.31;100.00
56420;BME280;42323;52.170;7.538;2022-08-21T04:53:08;101250.81;;;15.32;100.00
56420;BME280;42323;52.170;7.538;2022-08-21T04:55:37;101248.97;;;15.33;100.00
56420;BME280;42323;52.170;7.538;2022-08-21T04:58:06;101248.16;;;15.32;100.00
56420;BME280;42323;52.170;7.538;2022-08-21T05:00:34;101250.66;;;15.34;100.00
56420;BME280;42323;52.170;7.538;2022-08-21T05:03:01;101253.50;;;15.41;100.00
56420;BME280;42323;52.170;7.538;2022-08-21T05:05:29;101254.34;;;15.41;100.00
56420;BME280;42323;52.170;7.538;2022-08-21T05:07:59;101258.34;;;15.45;100.00
56420;BME280;42323;52.170;7.538;2022-08-21T05:10:27;101249.28;;;15.46;100.00
56420;BME280;42323;52.170;7.538;2022-08-21T05:12:55;101255.00;;;15.43;100.00
56420;BME280;42323;52.170;7.538;2022-08-21T05:15:22;101253.16;;;15.44;100.00
56420;BME280;42323;52.170;7.538;2022-08-21T05:17:49;101253.66;;;15.47;100.00
56420;BME280;42323;52.170;7.538;2022-08-21T05:20:27;101252.94;;;15.53;100.00
56420;BME280;42323;52.170;7.538;2022-08-21T05:22:54;101255.63;;;15.53;100.00
56420;BME280;42323;52.170;7.538;2022-08-21T05:25:21;101251.94;;;15.54;100.00
56420;BME280;42323;52.170;7.538;2022-08-21T05:27:49;101257.78;;;15.58;100.00
56420;BME280;42323;52.170;7.538;2022-08-21T05:30:19;101255.78;;;15.60;100.00
56420;BME280;42323;52.170;7.538;2022-08-21T05:32:46;101256.97;;;15.66;100.00
56420;BME280;42323;52.170;7.538;2022-08-21T05:35:16;101256.91;;;15.74;100.00
56420;BME280;42323;52.170;7.538;2022-08-21T05:37:43;101253.41;;;15.73;100.00
56420;BME280;42323;52.170;7.538;2022-08-21T05:40:10;101258.53;;;15.83;100.00
56420;BME280;42323;52.170;7.538;2022-08-21T05:42:49;101260.91;;;15.86;100.00
56420;BME280;42323;52.170;7.538;2022-08-21T05:45:26;101247.81;;;15.91;100.00
56420;BME280;42323;52.170;7.538;2022-08-21T05:48:14;101253.66;;;15.95;100.00
56420;BME280;42323;52.170;7.538;2022-08-21T05:50:42;101260.50;;;15.97;100.00
56420;BME280;42323;52.170;7.538;2022-08-21T05:53:09;101249.06;;;16.03;100.00
56420;BME280;42323;52.170;7.538;2022-08-21T05:55:37;101251.25;;;16.00;100.00
56420;BME280;42323;52.170;7.538;2022-08-21T05:58:14;101250.06;;;16.10;100.00
56420;BME280;42323;52.170;7.538;2022-08-21T06:00:43;101248.13;;;16.19;100.00
56420;BME280;42323;52.170;7.538;2022-08-21T06:03:15;101234.38;;;16.22;100.00
56420;BME280;42323;52.170;7.538;2022-08-21T06:05:44;101227.81;;;16.24;100.00
56420;BME280;42323;52.170;7.538;2022-08-21T06:08:17;101234.16;;;16.32;100.00
56420;BME280;42323;52.170;7.538;2022-08-21T06:10:45;101238.44;;;16.41;100.00
56420;BME280;42323;52.170;7.538;2022-08-21T06:13:13;101235.56;;;16.42;100.00
56420;BME280;42323;52.170;7.538;2022-08-21T06:15:40;101230.31;;;16.49;100.00
56420;BME280;42323;52.170;7.538;2022-08-21T06:18:07;101236.66;;;16.56;100.00
56420;BME280;42323;52.170;7.538;2022-08-21T06:20:34;101229.25;;;16.58;100.00
56420;BME280;42323;52.170;7.538;2022-08-21T06:23:01;101233.88;;;16.64;100.00
56420;BME280;42323;52.170;7.538;2022-08-21T06:25:28;101232.81;;;16.73;100.00
56420;BME280;42323;52.170;7.538;2022-08-21T06:28:04;101230.38;;;16.87;100.00
56420;BME280;42323;52.170;7.538;2022-08-21T06:30:32;101224.06;;;16.94;100.00
56420;BME280;42323;52.170;7.538;2022-08-21T06:32:59;101228.56;;;17.02;100.00
56420;BME280;42323;52.170;7.538;2022-08-21T06:35:26;101233.84;;;17.10;100.00
56420;BME280;42323;52.170;7.538;2022-08-21T06:37:56;101226.69;;;17.17;100.00
56420;BME280;42323;52.170;7.538;2022-08-21T06:40:25;101232.47;;;17.29;100.00
56420;BME280;42323;52.170;7.538;2022-08-21T06:42:56;101222.63;;;17.36;100.00
56420;BME280;42323;52.170;7.538;2022-08-21T06:45:24;101221.03;;;17.41;100.00
56420;BME280;42323;52.170;7.538;2022-08-21T06:47:54;101220.59;;;17.53;100.00
56420;BME280;42323;52.170;7.538;2022-08-21T06:50:21;101214.19;;;17.54;100.00
56420;BME280;42323;52.170;7.538;2022-08-21T06:52:48;101223.13;;;17.69;100.00
56420;BME280;42323;52.170;7.538;2022-08-21T06:55:16;101219.09;;;17.80;100.00
56420;BME280;42323;52.170;7.538;2022-08-21T06:57:48;101220.84;;;17.87;100.00
56420;BME280;42323;52.170;7.538;2022-08-21T07:00:18;101212.03;;;17.93;100.00
56420;BME280;42323;52.170;7.538;2022-08-21T07:02:45;101213.56;;;18.02;100.00
56420;BME280;42323;52.170;7.538;2022-08-21T07:05:12;101213.81;;;18.08;100.00
56420;BME280;42323;52.170;7.538;2022-08-21T07:07:44;101205.66;;;18.16;100.00
56420;BME280;42323;52.170;7.538;2022-08-21T07:10:11;101214.69;;;18.29;100.00
56420;BME280;42323;52.170;7.538;2022-08-21T07:12:49;101201.31;;;18.36;100.00
56420;BME280;42323;52.170;7.538;2022-08-21T07:15:28;101205.56;;;18.52;100.00
56420;BME280;42323;52.170;7.538;2022-08-21T07:17:56;101198.88;;;18.62;100.00
56420;BME280;42323;52.170;7.538;2022-08-21T07:20:24;101197.69;;;18.72;100.00
56420;BME280;42323;52.170;7.538;2022-08-21T07:22:51;101198.59;;;18.79;100.00
56420;BME280;42323;52.170;7.538;2022-08-21T07:25:18;101192.84;;;18.88;100.00
56420;BME280;42323;52.170;7.538;2022-08-21T07:27:45;101189.78;;;18.98;100.00
56420;BME280;42323;52.170;7.538;2022-08-21T07:30:12;101201.88;;;19.02;100.00
56420;BME280;42323;52.170;7.538;2022-08-21T07:32:39;101195.25;;;19.05;100.00
56420;BME280;42323;52.170;7.538;2022-08-21T07:35:06;101199.25;;;19.15;100.00
56420;BME280;42323;52.170;7.538;2022-08-21T07:37:33;101194.72;;;19.22;100.00
56420;BME280;42323;52.170;7.538;2022-08-21T07:40:00;101190.00;;;19.24;100.00
56420;BME280;42323;52.170;7.538;2022-08-21T07:42:27;101189.38;;;19.29;100.00
56420;BME280;42323;52.170;7.538;2022-08-21T07:44:55;101184.03;;;19.36;100.00
56420;BME280;42323;52.170;7.538;2022-08-21T07:47:22;101182.84;;;19.51;100.00
56420;BME280;42323;52.170;7.538;2022-08-21T07:50:12;101174.00;;;19.64;100.00
56420;BME280;42323;52.170;7.538;2022-08-21T07:52:40;101181.72;;;19.74;100.00
56420;BME280;42323;52.170;7.538;2022-08-21T07:55:11;101171.56;;;19.76;100.00
56420;BME280;42323;52.170;7.538;2022-08-21T07:57:38;101173.25;;;19.90;100.00
56420;BME280;42323;52.170;7.538;2022-08-21T08:00:07;101166.44;;;19.94;100.00
56420;BME280;42323;52.170;7.538;2022-08-21T08:02:35;101167.03;;;19.89;100.00
56420;BME280;42323;52.170;7.538;2022-08-21T08:05:09;101168.31;;;20.07;100.00
56420;BME280;42323;52.170;7.538;2022-08-21T08:07:38;101166.25;;;20.02;100.00
56420;BME280;42323;52.170;7.538;2022-08-21T08:10:06;101164.81;;;20.19;100.00
56420;BME280;42323;52.170;7.538;2022-08-21T08:12:35;101166.06;;;20.24;100.00
56420;BME280;42323;52.170;7.538;2022-08-21T08:15:03;101161.91;;;20.34;100.00
56420;BME280;42323;52.170;7.538;2022-08-21T08:17:31;101177.72;;;20.37;100.00
56420;BME280;42323;52.170;7.538;2022-08-21T08:19:59;101163.00;;;20.46;100.00
56420;BME280;42323;52.170;7.538;2022-08-21T08:22:29;101161.13;;;20.54;100.00
56420;BME280;42323;52.170;7.538;2022-08-21T08:24:57;101155.31;;;20.63;100.00
56420;BME280;42323;52.170;7.538;2022-08-21T08:27:25;101154.88;;;20.73;100.00
56420;BME280;42323;52.170;7.538;2022-08-21T08:29:52;101156.53;;;20.80;100.00
56420;BME280;42323;52.170;7.538;2022-08-21T08:32:19;101159.88;;;20.83;100.00
56420;BME280;42323;52.170;7.538;2022-08-21T08:34:46;101150.06;;;20.95;100.00
56420;BME280;42323;52.170;7.538;2022-08-21T08:37:15;101150.88;;;21.08;100.00
56420;BME280;42323;52.170;7.538;2022-08-21T08:39:43;101159.41;;;21.05;100.00
56420;BME280;42323;52.170;7.538;2022-08-21T08:42:16;101151.06;;;21.14;100.00
56420;BME280;42323;52.170;7.538;2022-08-21T08:45:07;101147.34;;;21.01;100.00
56420;BME280;42323;52.170;7.538;2022-08-21T08:47:36;101148.53;;;21.32;100.00
56420;BME280;42323;52.170;7.538;2022-08-21T08:50:18;101149.59;;;21.31;100.00
56420;BME280;42323;52.170;7.538;2022-08-21T08:53:00;101148.88;;;21.55;100.00
56420;BME280;42323;52.170;7.538;2022-08-21T08:55:39;101155.84;;;21.69;100.00
56420;BME280;42323;52.170;7.538;2022-08-21T08:58:22;101147.84;;;21.88;100.00
56420;BME280;42323;52.170;7.538;2022-08-21T09:00:52;101153.56;;;22.11;100.00
56420;BME280;42323;52.170;7.538;2022-08-21T09:03:21;101145.06;;;22.33;100.00
56420;BME280;42323;52.170;7.538;2022-08-21T09:06:23;101141.25;;;22.40;100.00
56420;BME280;42323;52.170;7.538;2022-08-21T09:14:51;101143.34;;;22.38;100.00
56420;BME280;42323;52.170;7.538;2022-08-21T09:22:52;101134.94;;;23.14;100.00
56420;BME280;42323;52.170;7.538;2022-08-21T09:25:31;101134.09;;;23.32;100.00
56420;BME280;42323;52.170;7.538;2022-08-21T09:27:58;101127.69;;;23.27;99.82
56420;BME280;42323;52.170;7.538;2022-08-21T09:30:31;101130.19;;;22.91;97.63
56420;BME280;42323;52.170;7.538;2022-08-21T09:35:26;101134.41;;;22.81;97.62
56420;BME280;42323;52.170;7.538;2022-08-21T09:37:58;101134.50;;;22.74;96.88
56420;BME280;42323;52.170;7.538;2022-08-21T09:40:42;101128.47;;;22.72;97.13
56420;BME280;42323;52.170;7.538;2022-08-21T09:45:35;101124.91;;;23.15;96.05
56420;BME280;42323;52.170;7.538;2022-08-21T09:48:12;101124.72;;;23.46;95.20
56420;BME280;42323;52.170;7.538;2022-08-21T09:50:40;101127.44;;;23.28;96.10
56420;BME280;42323;52.170;7.538;2022-08-21T09:53:29;101117.38;;;23.35;96.08
56420;BME280;42323;52.170;7.538;2022-08-21T09:56:14;101120.47;;;23.57;94.12
56420;BME280;42323;52.170;7.538;2022-08-21T09:59:16;101117.75;;;23.99;90.27
56420;BME280;42323;52.170;7.538;2022-08-21T10:01:47;101116.59;;;24.06;90.96
56420;BME280;42323;52.170;7.538;2022-08-21T10:04:20;101113.59;;;23.96;92.17
56420;BME280;42323;52.170;7.538;2022-08-21T10:06:47;101116.91;;;23.98;90.31
56420;BME280;42323;52.170;7.538;2022-08-21T10:09:17;101113.28;;;24.69;85.01
56420;BME280;42323;52.170;7.538;2022-08-21T10:12:09;101108.63;;;25.05;86.06
56420;BME280;42323;52.170;7.538;2022-08-21T10:17:42;101106.28;;;25.77;78.42
56420;BME280;42323;52.170;7.538;2022-08-21T10:20:23;101117.47;;;25.52;79.92
56420;BME280;42323;52.170;7.538;2022-08-21T10:25:55;101118.09;;;25.14;79.60
56420;BME280;42323;52.170;7.538;2022-08-21T10:28:49;101112.91;;;25.81;76.14
56420;BME280;42323;52.170;7.538;2022-08-21T10:37:05;101113.78;;;27.26;62.93
56420;BME280;42323;52.170;7.538;2022-08-21T10:39:52;101113.16;;;27.41;62.48
56420;BME280;42323;52.170;7.538;2022-08-21T10:42:32;101125.78;;;27.47;62.76
56420;BME280;42323;52.170;7.538;2022-08-21T10:45:11;101122.75;;;27.65;58.54
56420;BME280;42323;52.170;7.538;2022-08-21T10:47:46;101111.38;;;28.32;58.13
56420;BME280;42323;52.170;7.538;2022-08-21T10:50:19;101111.94;;;28.34;56.38
56420;BME280;42323;52.170;7.538;2022-08-21T10:58:28;101109.69;;;27.72;55.84
56420;BME280;42323;52.170;7.538;2022-08-21T11:01:03;101108.41;;;28.07;54.45
56420;BME280;42323;52.170;7.538;2022-08-21T11:03:41;101109.22;;;28.08;54.86
56420;BME280;42323;52.170;7.538;2022-08-21T11:08:53;101092.56;;;28.41;54.83
56420;BME280;42323;52.170;7.538;2022-08-21T11:11:29;101097.44;;;28.76;55.35
56420;BME280;42323;52.170;7.538;2022-08-21T11:17:18;101105.25;;;29.05;50.49
56420;BME280;42323;52.170;7.538;2022-08-21T11:20:07;101109.84;;;28.94;51.08
56420;BME280;42323;52.170;7.538;2022-08-21T11:23:21;101101.91;;;28.92;50.00
56420;BME280;42323;52.170;7.538;2022-08-21T11:25:50;101104.81;;;29.38;50.55
56420;BME280;42323;52.170;7.538;2022-08-21T11:28:26;101102.63;;;29.30;50.40
56420;BME280;42323;52.170;7.538;2022-08-21T11:31:41;101104.19;;;29.16;48.36
56420;BME280;42323;52.170;7.538;2022-08-21T11:38:46;101111.59;;;30.44;45.46
56420;BME280;42323;52.170;7.538;2022-08-21T11:41:31;101111.03;;;30.47;43.25
56420;BME280;42323;52.170;7.538;2022-08-21T11:44:14;101101.72;;;30.38;42.63
56420;BME280;42323;52.170;7.538;2022-08-21T11:46:55;101105.56;;;30.37;43.54
56420;BME280;42323;52.170;7.538;2022-08-21T11:55:02;101112.69;;;30.28;41.83
56420;BME280;42323;52.170;7.538;2022-08-21T11:58:01;101108.34;;;29.23;44.32
56420;BME280;42323;52.170;7.538;2022-08-21T12:00:38;101103.28;;;29.52;44.34
56420;BME280;42323;52.170;7.538;2022-08-21T12:03:12;101117.84;;;29.01;45.30
56420;BME280;42323;52.170;7.538;2022-08-21T12:05:42;101113.59;;;29.35;44.14
56420;BME280;42323;52.170;7.538;2022-08-21T12:14:11;101109.13;;;29.14;44.82
56420;BME280;42323;52.170;7.538;2022-08-21T12:16:42;101103.28;;;29.57;45.19
56420;BME280;42323;52.170;7.538;2022-08-21T12:19:12;101109.94;;;29.09;44.28
56420;BME280;42323;52.170;7.538;2022-08-21T12:26:57;101105.47;;;29.61;44.69
56420;BME280;42323;52.170;7.538;2022-08-21T12:29:32;101111.84;;;29.92;42.66
56420;BME280;42323;52.170;7.538;2022-08-21T12:35:20;101097.53;;;29.64;44.67
56420;BME280;42323;52.170;7.538;2022-08-21T12:38:06;101093.97;;;29.64;44.43
56420;BME280;42323;52.170;7.538;2022-08-21T12:41:01;101087.34;;;29.44;44.32
56420;BME280;42323;52.170;7.538;2022-08-21T12:45:56;101104.75;;;28.71;46.83
56420;BME280;42323;52.170;7.538;2022-08-21T12:50:55;101099.50;;;28.54;46.79
56420;BME280;42323;52.170;7.538;2022-08-21T12:53:35;101091.50;;;28.89;46.63
56420;BME280;42323;52.170;7.538;2022-08-21T12:56:10;101095.97;;;29.11;46.36
56420;BME280;42323;52.170;7.538;2022-08-21T12:58:43;101092.38;;;29.00;46.37
56420;BME280;42323;52.170;7.538;2022-08-21T13:01:48;101095.06;;;28.90;46.49
56420;BME280;42323;52.170;7.538;2022-08-21T13:04:19;101096.06;;;29.31;46.02
56420;BME280;42323;52.170;7.538;2022-08-21T13:06:52;101096.53;;;29.18;46.21
56420;BME280;42323;52.170;7.538;2022-08-21T13:09:24;101093.41;;;29.51;46.04
56420;BME280;42323;52.170;7.538;2022-08-21T13:11:52;101103.25;;;29.47;46.25
56420;BME280;42323;52.170;7.538;2022-08-21T13:14:34;101094.69;;;29.34;46.27
56420;BME280;42323;52.170;7.538;2022-08-21T13:17:11;101092.31;;;29.63;45.37
56420;BME280;42323;52.170;7.538;2022-08-21T13:19:58;101091.50;;;28.89;47.12
56420;BME280;42323;52.170;7.538;2022-08-21T13:22:27;101093.34;;;28.36;48.17
56420;BME280;42323;52.170;7.538;2022-08-21T13:25:00;101102.25;;;27.95;49.20
56420;BME280;42323;52.170;7.538;2022-08-21T13:27:32;101094.75;;;28.44;47.21
56420;BME280;42323;52.170;7.538;2022-08-21T13:32:34;101095.38;;;28.24;48.05
56420;BME280;42323;52.170;7.538;2022-08-21T13:35:10;101093.75;;;28.55;46.75
56420;BME280;42323;52.170;7.538;2022-08-21T13:37:40;101103.72;;;29.24;46.80
56420;BME280;42323;52.170;7.538;2022-08-21T13:40:11;101084.94;;;29.78;44.48
56420;BME280;42323;52.170;7.538;2022-08-21T13:42:42;101089.88;;;29.86;44.20
56420;BME280;42323;52.170;7.538;2022-08-21T13:45:14;101086.06;;;29.98;43.74
56420;BME280;42323;52.170;7.538;2022-08-21T13:47:43;101088.03;;;30.17;43.14
56420;BME280;42323;52.170;7.538;2022-08-21T13:50:14;101081.97;;;30.31;42.92
56420;BME280;42323;52.170;7.538;2022-08-21T13:52:55;101091.84;;;30.42;42.66
56420;BME280;42323;52.170;7.538;2022-08-21T13:55:25;101090.19;;;30.26;43.69
56420;BME280;42323;52.170;7.538;2022-08-21T13:58:00;101091.84;;;30.62;43.04
56420;BME280;42323;52.170;7.538;2022-08-21T14:00:30;101084.34;;;30.88;42.87
56420;BME280;42323;52.170;7.538;2022-08-21T14:03:09;101093.72;;;30.72;42.06
56420;BME280;42323;52.170;7.538;2022-08-21T14:05:44;101090.41;;;30.75;41.59
56420;BME280;42323;52.170;7.538;2022-08-21T14:08:23;101093.06;;;29.38;44.21
56420;BME280;42323;52.170;7.538;2022-08-21T14:10:56;101085.81;;;30.04;43.91
56420;BME280;42323;52.170;7.538;2022-08-21T14:13:40;101083.31;;;30.48;42.82
56420;BME280;42323;52.170;7.538;2022-08-21T14:16:16;101079.56;;;31.19;40.79
56420;BME280;42323;52.170;7.538;2022-08-21T14:19:08;101078.91;;;31.37;40.58